createdAt,value
2022-10-12T00:00:39.794Z,99241.31
2022-10-12T00:03:07.830Z,99244.56
2022-10-12T00:05:35.815Z,99249.25
2022-10-12T00:08:05.332Z,99254.09
2022-10-12T00:10:33.248Z,99246.31
2022-10-12T00:13:01.251Z,99247.47
2022-10-12T00:15:29.255Z,99246.41
2022-10-12T00:17:57.194Z,99253.09
2022-10-12T00:20:25.139Z,99251.09
2022-10-12T00:22:53.095Z,99251.31
2022-10-12T00:25:22.524Z,99246.97
2022-10-12T00:27:50.485Z,99246.63
2022-10-12T00:30:18.846Z,99251.94
2022-10-12T00:32:46.856Z,99251.16
2022-10-12T00:35:14.898Z,99251.84
2022-10-12T00:37:42.948Z,99249.31
2022-10-12T00:40:13.039Z,99251.00
2022-10-12T00:42:42.354Z,99250.38
2022-10-12T00:45:11.239Z,99257.56
2022-10-12T00:47:42.813Z,99254.75
2022-10-12T00:50:17.056Z,99253.78
2022-10-12T00:52:51.187Z,99255.66
2022-10-12T00:55:21.081Z,99257.53
2022-10-12T00:57:52.425Z,99255.00
2022-10-12T01:00:22.260Z,99247.53
2022-10-12T01:02:53.246Z,99256.72
2022-10-12T01:05:22.262Z,99252.91
2022-10-12T01:07:50.583Z,99251.81
2022-10-12T01:10:18.825Z,99258.06
2022-10-12T01:12:50.680Z,99252.53
2022-10-12T01:15:18.820Z,99255.94
2022-10-12T01:18:01.110Z,99247.25
2022-10-12T01:21:03.144Z,99243.25
2022-10-12T01:24:03.649Z,99245.09
2022-10-12T01:27:01.405Z,99249.31
2022-10-12T01:29:53.452Z,99242.19
2022-10-12T01:32:26.141Z,99236.00
2022-10-12T01:35:00.135Z,99242.00
2022-10-12T01:37:36.485Z,99245.78
2022-10-12T01:40:09.034Z,99244.94
2022-10-12T01:42:41.414Z,99242.53
2022-10-12T01:45:13.509Z,99242.94
2022-10-12T01:47:43.949Z,99243.84
2022-10-12T01:50:15.405Z,99238.03
2022-10-12T01:52:52.879Z,99245.41
2022-10-12T01:55:30.047Z,99239.88
2022-10-12T01:58:17.322Z,99246.16
2022-10-12T02:00:57.109Z,99241.88
2022-10-12T02:03:34.949Z,99242.78
2022-10-12T02:06:08.318Z,99242.56
2022-10-12T02:08:43.011Z,99241.94
2022-10-12T02:11:13.688Z,99246.09
2022-10-12T02:13:45.034Z,99252.06
2022-10-12T02:16:18.329Z,99248.34
2022-10-12T02:18:49.547Z,99245.28
2022-10-12T02:21:22.350Z,99248.03
2022-10-12T02:23:53.763Z,99246.19
2022-10-12T02:26:23.032Z,99253.16
2022-10-12T02:28:51.701Z,99255.91
2022-10-12T02:31:29.927Z,99251.81
2022-10-12T02:34:02.369Z,99248.97
2022-10-12T02:36:37.874Z,99249.78
2022-10-12T02:39:11.844Z,99254.44
2022-10-12T02:41:45.973Z,99240.06
2022-10-12T02:44:17.301Z,99247.06
2022-10-12T02:46:49.285Z,99244.56
2022-10-12T02:49:18.633Z,99248.16
2022-10-12T02:51:48.261Z,99255.53
2022-10-12T02:54:16.539Z,99252.63
2022-10-12T02:56:46.051Z,99248.03
2022-10-12T02:59:14.549Z,99252.00
2022-10-12T03:01:42.693Z,99249.16
2022-10-12T03:04:12.033Z,99255.44
2022-10-12T03:06:40.091Z,99257.94
2022-10-12T03:09:08.137Z,99259.16
2022-10-12T03:11:37.736Z,99257.19
2022-10-12T03:14:05.791Z,99254.44
2022-10-12T03:16:33.755Z,99253.09
2022-10-12T03:19:01.766Z,99250.47
2022-10-12T03:21:31.118Z,99254.13
2022-10-12T03:23:59.152Z,99255.75
2022-10-12T03:26:27.284Z,99256.50
2022-10-12T03:28:55.504Z,99259.25
2022-10-12T03:31:23.649Z,99258.50
2022-10-12T03:33:51.668Z,99254.66
2022-10-12T03:36:19.705Z,99252.56
2022-10-12T03:38:49.085Z,99251.47
2022-10-12T03:41:17.029Z,99256.53
2022-10-12T03:43:45.824Z,99261.03
2022-10-12T03:46:13.912Z,99253.81
2022-10-12T03:48:42.004Z,99258.72
2022-10-12T03:51:09.978Z,99251.38
2022-10-12T03:53:41.775Z,99253.66
2022-10-12T03:56:14.463Z,99261.81
2022-10-12T03:58:42.418Z,99261.81
2022-10-12T04:01:10.461Z,99261.72
2022-10-12T04:03:38.510Z,99260.50
2022-10-12T04:06:07.094Z,99259.28
2022-10-12T04:08:35.126Z,99251.94
2022-10-12T04:11:03.160Z,99258.19
2022-10-12T04:13:32.548Z,99251.13
2022-10-12T04:16:03.608Z,99261.06
2022-10-12T04:18:31.998Z,99271.16
2022-10-12T04:21:00.692Z,99263.59
2022-10-12T04:23:29.149Z,99262.81
2022-10-12T04:25:57.091Z,99271.25
2022-10-12T04:28:25.111Z,99268.16
2022-10-12T04:30:54.569Z,99266.94
2022-10-12T04:33:22.525Z,99267.66
2022-10-12T04:35:50.555Z,99278.53
2022-10-12T04:38:18.727Z,99267.81
2022-10-12T04:40:47.982Z,99272.50
2022-10-12T04:43:16.620Z,99278.25
2022-10-12T04:45:45.028Z,99278.63
2022-10-12T04:48:14.344Z,99277.06
2022-10-12T04:50:42.320Z,99285.09
2022-10-12T04:53:10.318Z,99284.69
2022-10-12T04:55:39.051Z,99282.53
2022-10-12T04:58:06.980Z,99274.81
2022-10-12T05:00:35.091Z,99278.44
2022-10-12T05:03:03.036Z,99277.34
2022-10-12T05:05:34.426Z,99280.50
2022-10-12T05:08:02.486Z,99276.31
2022-10-12T05:10:30.599Z,99283.16
2022-10-12T05:12:58.680Z,99289.00
2022-10-12T05:15:26.651Z,99286.72
2022-10-12T05:17:54.688Z,99287.47
2022-10-12T05:20:22.738Z,99291.44
2022-10-12T05:22:52.099Z,99294.88
2022-10-12T05:25:20.585Z,99291.69
2022-10-12T05:27:48.656Z,99294.72
2022-10-12T05:30:16.891Z,99295.22
2022-10-12T05:32:44.939Z,99302.53
2022-10-12T05:35:12.898Z,99304.50
2022-10-12T05:37:41.228Z,99305.19
2022-10-12T05:40:11.794Z,99294.47
2022-10-12T05:42:40.125Z,99300.28
2022-10-12T05:45:09.385Z,99296.50
2022-10-12T05:47:37.827Z,99297.53
2022-10-12T05:50:06.837Z,99295.94
2022-10-12T05:52:34.984Z,99291.16
2022-10-12T05:55:03.177Z,99294.22
2022-10-12T05:57:32.705Z,99287.06
2022-10-12T06:00:00.655Z,99289.31
2022-10-12T06:02:28.717Z,99300.25
2022-10-12T06:04:56.681Z,99297.28
2022-10-12T06:07:24.774Z,99299.56
2022-10-12T06:09:52.711Z,99305.44
2022-10-12T06:12:21.092Z,99308.53
2022-10-12T06:14:50.497Z,99310.19
2022-10-12T06:17:18.447Z,99303.63
2022-10-12T06:19:46.513Z,99307.69
2022-10-12T06:22:14.469Z,99302.53
2022-10-12T06:24:42.477Z,99313.41
2022-10-12T06:27:10.466Z,99305.16
2022-10-12T06:29:38.501Z,99304.94
2022-10-12T06:32:07.784Z,99307.44
2022-10-12T06:34:35.763Z,99307.91
2022-10-12T06:37:03.731Z,99311.75
2022-10-12T06:39:31.868Z,99315.38
2022-10-12T06:41:59.889Z,99310.72
2022-10-12T06:44:29.633Z,99316.75
2022-10-12T06:46:57.699Z,99319.06
2022-10-12T06:49:27.111Z,99329.72
2022-10-12T06:51:55.094Z,99332.88
2022-10-12T06:54:23.038Z,99316.22
2022-10-12T06:56:53.356Z,99323.97
2022-10-12T06:59:25.020Z,99320.97
2022-10-12T07:01:52.970Z,99322.69
2022-10-12T07:04:20.915Z,99321.66
2022-10-12T07:06:50.623Z,99326.34
2022-10-12T07:09:18.787Z,99322.41
2022-10-12T07:11:46.934Z,99326.78
2022-10-12T07:14:14.921Z,99321.75
2022-10-12T07:16:42.880Z,99327.59
2022-10-12T07:19:11.052Z,99323.19
2022-10-12T07:21:39.033Z,99323.53
2022-10-12T07:24:08.941Z,99326.81
2022-10-12T07:26:36.928Z,99320.69
2022-10-12T07:29:04.919Z,99320.00
2022-10-12T07:31:32.888Z,99324.78
2022-10-12T07:34:00.877Z,99317.28
2022-10-12T07:36:47.319Z,99318.69
2022-10-12T07:39:18.446Z,99316.53
2022-10-12T07:41:46.549Z,99305.97
2022-10-12T07:44:14.740Z,99313.19
2022-10-12T07:46:42.954Z,99311.50
2022-10-12T07:49:12.849Z,99312.56
2022-10-12T07:51:40.932Z,99307.66
2022-10-12T07:54:09.660Z,99302.28
2022-10-12T07:56:39.289Z,99298.25
2022-10-12T07:59:07.463Z,99299.91
2022-10-12T08:01:35.895Z,99306.34
2022-10-12T08:04:03.987Z,99302.63
2022-10-12T08:06:34.005Z,99305.84
2022-10-12T08:09:02.807Z,99303.69
2022-10-12T08:11:30.942Z,99304.16
2022-10-12T08:14:00.433Z,99303.31
2022-10-12T08:16:28.461Z,99302.22
2022-10-12T08:18:56.473Z,99303.25
2022-10-12T08:21:24.450Z,99304.09
2022-10-12T08:23:52.469Z,99301.69
2022-10-12T08:26:20.447Z,99302.47
2022-10-12T08:28:48.533Z,99305.75
2022-10-12T08:31:19.498Z,99300.56
2022-10-12T08:33:47.504Z,99296.03
2022-10-12T08:36:15.565Z,99295.31
2022-10-12T08:38:45.486Z,99303.81
2022-10-12T08:41:24.705Z,99299.72
2022-10-12T08:44:19.864Z,99302.81
2022-10-12T08:46:50.254Z,99299.72
2022-10-12T08:49:21.344Z,99303.00
2022-10-12T08:51:52.874Z,99303.56
2022-10-12T08:54:23.572Z,99308.66
2022-10-12T08:56:55.227Z,99307.50
2022-10-12T08:59:23.704Z,99306.47
2022-10-12T09:02:07.033Z,99312.38
2022-10-12T09:04:45.313Z,99306.91
2022-10-12T09:07:18.453Z,99310.47
2022-10-12T09:10:14.247Z,99300.38
2022-10-12T09:12:53.445Z,99317.16
2022-10-12T09:15:23.789Z,99308.22
2022-10-12T09:17:54.892Z,99304.84
2022-10-12T09:20:24.726Z,99308.88
2022-10-12T09:22:56.596Z,99301.81
2022-10-12T09:25:26.962Z,99304.09
2022-10-12T09:27:58.575Z,99305.06
2022-10-12T09:30:30.929Z,99302.63
2022-10-12T09:33:12.870Z,99301.59
2022-10-12T09:35:42.159Z,99307.44
2022-10-12T09:38:11.814Z,99307.44
2022-10-12T09:40:41.001Z,99303.13
2022-10-12T09:43:09.941Z,99303.06
2022-10-12T09:45:39.402Z,99308.78
2022-10-12T09:48:15.468Z,99305.66
2022-10-12T09:50:46.840Z,99300.09
2022-10-12T09:53:21.458Z,99299.97
2022-10-12T09:55:59.035Z,99303.09
2022-10-12T09:58:29.163Z,99302.19
2022-10-12T10:01:21.613Z,99291.66
2022-10-12T10:04:07.071Z,99300.94
2022-10-12T10:06:35.934Z,99291.22
2022-10-12T10:09:04.149Z,99294.34
2022-10-12T10:11:32.675Z,99290.06
2022-10-12T10:14:02.857Z,99288.41
2022-10-12T10:16:31.821Z,99287.47
2022-10-12T10:19:03.122Z,99291.31
2022-10-12T10:21:34.325Z,99282.06
2022-10-12T10:24:04.135Z,99280.19
2022-10-12T10:26:52.838Z,99281.09
2022-10-12T10:29:35.624Z,99286.72
2022-10-12T10:32:12.553Z,99286.59
2022-10-12T10:34:42.768Z,99285.66
2022-10-12T10:37:20.543Z,99283.44
2022-10-12T10:39:50.999Z,99273.69
2022-10-12T10:42:21.653Z,99283.88
2022-10-12T10:44:52.555Z,99279.03
2022-10-12T10:47:20.855Z,99279.94
2022-10-12T10:49:55.568Z,99276.66
2022-10-12T10:52:26.507Z,99275.53
2022-10-12T10:55:17.026Z,99274.00
2022-10-12T10:57:49.494Z,99274.56
2022-10-12T11:00:38.006Z,99274.38
2022-10-12T11:03:14.280Z,99269.06
2022-10-12T11:05:47.807Z,99275.72
2022-10-12T11:08:21.319Z,99278.31
2022-10-12T11:10:55.889Z,99274.13
2022-10-12T11:13:29.549Z,99272.84
2022-10-12T11:16:04.218Z,99264.69
2022-10-12T11:18:40.921Z,99269.41
2022-10-12T11:21:16.695Z,99267.06
2022-10-12T11:23:50.457Z,99268.59
2022-10-12T11:26:25.898Z,99265.41
2022-10-12T11:28:55.854Z,99262.31
2022-10-12T11:31:27.768Z,99262.31
2022-10-12T11:34:01.319Z,99260.28
2022-10-12T11:36:33.429Z,99261.63
2022-10-12T11:39:07.187Z,99254.78
2022-10-12T11:42:09.332Z,99246.66
2022-10-12T11:44:42.330Z,99248.31
2022-10-12T11:47:17.350Z,99249.88
2022-10-12T11:49:55.095Z,99246.22
2022-10-12T11:52:28.923Z,99244.31
2022-10-12T11:55:01.798Z,99245.25
2022-10-12T11:57:35.093Z,99246.50
2022-10-12T12:00:06.424Z,99232.16
2022-10-12T12:02:43.578Z,99231.63
2022-10-12T12:05:16.579Z,99232.72
2022-10-12T12:07:51.263Z,99234.03
2022-10-12T12:10:54.347Z,99224.13
2022-10-12T12:13:27.266Z,99227.56
2022-10-12T12:16:34.273Z,99230.16
2022-10-12T12:19:36.533Z,99221.09
2022-10-12T12:22:19.893Z,99219.38
2022-10-12T12:25:11.989Z,99221.16
2022-10-12T12:27:43.034Z,99226.31
2022-10-12T12:30:34.421Z,99218.63
2022-10-12T12:33:04.509Z,99222.41
2022-10-12T12:35:38.645Z,99229.03
2022-10-12T12:38:25.104Z,99223.19
2022-10-12T12:41:13.832Z,99220.28
2022-10-12T12:44:04.170Z,99219.34
2022-10-12T12:47:39.970Z,99220.22
2022-10-12T12:50:00.493Z,99210.78
2022-10-12T12:52:31.264Z,99207.78
2022-10-12T12:55:20.324Z,99206.72
2022-10-12T12:58:04.933Z,99208.38
2022-10-12T13:00:39.405Z,99202.75
2022-10-12T13:03:40.662Z,99203.34
2022-10-12T13:06:42.922Z,99198.22
2022-10-12T13:09:46.976Z,99198.63
2022-10-12T13:12:42.755Z,99200.47
2022-10-12T13:15:38.273Z,99184.44
2022-10-12T13:18:47.586Z,99197.38
2022-10-12T13:21:21.445Z,99191.66
2022-10-12T13:23:52.291Z,99183.81
2022-10-12T13:26:26.478Z,99195.44
2022-10-12T13:28:56.895Z,99184.69
2022-10-12T13:31:33.655Z,99188.88
2022-10-12T13:34:08.106Z,99185.94
2022-10-12T13:36:47.728Z,99190.41
2022-10-12T13:39:18.084Z,99180.50
2022-10-12T13:41:47.670Z,99184.25
2022-10-12T13:44:23.237Z,99182.97
2022-10-12T13:46:56.469Z,99177.28
2022-10-12T13:49:27.485Z,99178.88
2022-10-12T13:51:57.532Z,99177.09
2022-10-12T13:54:28.212Z,99183.81
2022-10-12T13:56:59.224Z,99180.19
2022-10-12T13:59:29.629Z,99176.34
2022-10-12T14:02:01.170Z,99180.25
2022-10-12T14:04:31.271Z,99171.22
2022-10-12T14:07:04.095Z,99171.38
2022-10-12T14:09:40.497Z,99175.19
2022-10-12T14:12:10.683Z,99168.66
2022-10-12T14:14:41.163Z,99164.94
2022-10-12T14:17:15.906Z,99164.66
2022-10-12T14:19:47.933Z,99170.59
2022-10-12T14:22:22.235Z,99164.22
2022-10-12T14:24:50.799Z,99167.28
2022-10-12T14:27:25.018Z,99159.97
2022-10-12T14:29:57.429Z,99164.56
2022-10-12T14:32:44.282Z,99164.31
2022-10-12T14:35:24.845Z,99157.59
2022-10-12T14:37:54.927Z,99148.31
2022-10-12T14:40:40.657Z,99148.06
2022-10-12T14:43:24.263Z,99152.84
2022-10-12T14:45:53.125Z,99147.44
2022-10-12T14:48:23.759Z,99153.38
2022-10-12T14:50:52.561Z,99152.72
2022-10-12T14:53:21.117Z,99151.53
2022-10-12T14:55:52.262Z,99152.59
2022-10-12T14:58:22.619Z,99147.44
2022-10-12T15:00:50.740Z,99147.22
2022-10-12T15:03:20.258Z,99154.56
2022-10-12T15:05:49.680Z,99150.00
2022-10-12T15:08:17.655Z,99150.59
2022-10-12T15:10:47.000Z,99156.47
2022-10-12T15:13:15.108Z,99162.44
2022-10-12T15:15:46.215Z,99146.41
2022-10-12T15:18:14.325Z,99158.75
2022-10-12T15:20:46.896Z,99152.81
2022-10-12T15:23:19.151Z,99152.53
2022-10-12T15:25:51.429Z,99159.44
2022-10-12T15:28:20.141Z,99150.56
2022-10-12T15:31:15.358Z,99161.72
2022-10-12T15:33:36.472Z,99155.97
2022-10-12T15:36:04.757Z,99163.78
2022-10-12T15:38:34.244Z,99165.59
2022-10-12T15:41:02.263Z,99169.69
2022-10-12T15:43:31.475Z,99163.56
2022-10-12T15:46:00.422Z,99165.06
2022-10-12T15:48:29.105Z,99163.03
2022-10-12T15:50:57.388Z,99166.31
2022-10-12T15:53:27.352Z,99160.47
2022-10-12T15:55:57.195Z,99163.72
2022-10-12T15:58:25.249Z,99154.25
2022-10-12T16:00:53.619Z,99164.41
2022-10-12T16:03:26.047Z,99158.97
2022-10-12T16:05:54.866Z,99164.16
2022-10-12T16:08:23.004Z,99169.19
2022-10-12T16:10:51.643Z,99163.84
2022-10-12T16:13:21.010Z,99167.78
2022-10-12T16:15:49.032Z,99167.91
2022-10-12T16:18:17.680Z,99167.75
2022-10-12T16:20:51.106Z,99163.59
2022-10-12T16:23:24.328Z,99171.03
2022-10-12T16:25:52.658Z,99176.22
2022-10-12T16:28:22.415Z,99168.06
2022-10-12T16:30:50.837Z,99173.44
2022-10-12T16:33:19.508Z,99165.44
2022-10-12T16:35:47.878Z,99160.78
2022-10-12T16:38:16.110Z,99158.91
2022-10-12T16:40:44.093Z,99165.09
2022-10-12T16:43:13.305Z,99163.84
2022-10-12T16:45:42.702Z,99169.72
2022-10-12T16:48:10.677Z,99170.09
2022-10-12T16:50:40.974Z,99172.69
2022-10-12T16:53:11.119Z,99169.13
2022-10-12T16:55:40.155Z,99168.38
2022-10-12T16:58:08.093Z,99169.63
2022-10-12T17:00:36.829Z,99176.66
2022-10-12T17:03:06.262Z,99172.03
2022-10-12T17:05:34.196Z,99177.66
2022-10-12T17:08:02.175Z,99175.25
2022-10-12T17:10:30.452Z,99172.47
2022-10-12T17:12:58.416Z,99172.09
2022-10-12T17:15:26.430Z,99177.28
2022-10-12T17:17:54.449Z,99176.44
2022-10-12T17:20:23.769Z,99179.50
2022-10-12T17:22:51.735Z,99167.47
2022-10-12T17:25:19.681Z,99176.03
2022-10-12T17:27:50.659Z,99181.94
2022-10-12T17:30:19.621Z,99178.84
2022-10-12T17:32:47.719Z,99181.78
2022-10-12T17:35:15.906Z,99172.66
2022-10-12T17:37:45.277Z,99180.47
2022-10-12T17:40:13.212Z,99180.28
2022-10-12T17:42:41.241Z,99182.41
2022-10-12T17:45:09.905Z,99184.69
2022-10-12T17:47:39.520Z,99180.28
2022-10-12T17:50:08.257Z,99168.16
2022-10-12T17:52:39.643Z,99181.75
2022-10-12T17:55:29.502Z,99171.38
2022-10-12T17:57:57.771Z,99172.16
2022-10-12T18:00:25.962Z,99174.81
2022-10-12T18:02:54.079Z,99177.28
2022-10-12T18:05:22.072Z,99169.16
2022-10-12T18:07:50.046Z,99174.88
2022-10-12T18:10:21.489Z,99177.63
2022-10-12T18:12:51.498Z,99179.81
2022-10-12T18:15:19.460Z,99168.47
2022-10-12T18:17:47.532Z,99172.66
2022-10-12T18:20:15.517Z,99173.56
2022-10-12T18:22:43.570Z,99185.56
2022-10-12T18:25:11.566Z,99176.03
2022-10-12T18:27:40.845Z,99169.78
2022-10-12T18:30:10.105Z,99172.44
2022-10-12T18:32:38.087Z,99167.66
2022-10-12T18:35:07.228Z,99163.81
2022-10-12T18:37:35.245Z,99163.50
2022-10-12T18:40:03.159Z,99165.78
2022-10-12T18:42:31.278Z,99167.47
2022-10-12T18:45:00.653Z,99167.03
2022-10-12T18:47:28.603Z,99163.19
2022-10-12T18:49:56.668Z,99166.25
2022-10-12T18:52:24.574Z,99161.53
2022-10-12T18:54:52.514Z,99159.53
2022-10-12T18:57:20.554Z,99156.16
2022-10-12T18:59:51.325Z,99156.47
2022-10-12T19:02:21.874Z,99161.81
2022-10-12T19:04:50.495Z,99163.53
2022-10-12T19:07:18.570Z,99162.16
2022-10-12T19:09:46.490Z,99166.13
2022-10-12T19:12:16.995Z,99165.69
2022-10-12T19:14:45.223Z,99155.09
2022-10-12T19:17:13.268Z,99159.84
2022-10-12T19:19:42.754Z,99167.53
2022-10-12T19:22:10.867Z,99159.56
2022-10-12T19:24:38.812Z,99161.84
2022-10-12T19:27:06.783Z,99164.31
2022-10-12T19:29:34.736Z,99157.81
2022-10-12T19:32:02.882Z,99163.25
2022-10-12T19:34:30.852Z,99160.75
2022-10-12T19:37:00.655Z,99159.81
2022-10-12T19:39:28.730Z,99174.38
2022-10-12T19:41:56.713Z,99175.78
2022-10-12T19:44:24.838Z,99175.78
2022-10-12T19:46:53.684Z,99178.84
2022-10-12T19:49:21.906Z,99175.31
2022-10-12T19:51:49.840Z,99179.75
2022-10-12T19:54:19.770Z,99178.53
2022-10-12T19:56:47.765Z,99179.25
2022-10-12T19:59:15.801Z,99181.25
2022-10-12T20:01:47.872Z,99173.88
2022-10-12T20:04:16.611Z,99178.66
2022-10-12T20:06:44.538Z,99178.94
2022-10-12T20:09:12.933Z,99176.47
2022-10-12T20:11:42.461Z,99175.69
2022-10-12T20:14:11.728Z,99176.00
2022-10-12T20:16:39.941Z,99171.09
2022-10-12T20:19:08.131Z,99170.75
2022-10-12T20:21:37.531Z,99173.09
2022-10-12T20:24:05.853Z,99177.94
2022-10-12T20:26:33.774Z,99174.38
2022-10-12T20:29:03.152Z,99181.91
2022-10-12T20:31:31.212Z,99186.47
2022-10-12T20:33:59.344Z,99181.66
2022-10-12T20:36:29.598Z,99176.91
2022-10-12T20:38:59.100Z,99179.06
2022-10-12T20:41:27.742Z,99178.78
2022-10-12T20:43:57.345Z,99183.31
2022-10-12T20:46:29.221Z,99185.91
2022-10-12T20:48:59.307Z,99180.47
2022-10-12T20:51:29.668Z,99180.66
2022-10-12T20:54:00.887Z,99177.41
2022-10-12T20:56:29.338Z,99174.84
2022-10-12T20:58:57.354Z,99176.09
2022-10-12T21:01:28.349Z,99169.03
2022-10-12T21:03:56.756Z,99175.63
2022-10-12T21:06:25.265Z,99173.75
2022-10-12T21:08:54.869Z,99179.91
2022-10-12T21:11:23.294Z,99182.00
2022-10-12T21:13:51.640Z,99181.91
2022-10-12T21:16:20.288Z,99177.78
2022-10-12T21:18:49.626Z,99180.22
2022-10-12T21:21:19.972Z,99181.56
2022-10-12T21:23:54.157Z,99173.75
2022-10-12T21:26:24.034Z,99171.13
2022-10-12T21:28:52.250Z,99173.44
2022-10-12T21:31:20.794Z,99170.81
2022-10-12T21:33:50.113Z,99169.59
2022-10-12T21:36:19.739Z,99165.75
2022-10-12T21:38:48.088Z,99172.16
2022-10-12T21:41:18.148Z,99163.53
2022-10-12T21:43:46.229Z,99161.28
2022-10-12T21:46:16.503Z,99163.38
2022-10-12T21:48:44.738Z,99166.59
2022-10-12T21:51:14.729Z,99164.44
2022-10-12T21:53:42.981Z,99161.53
2022-10-12T21:56:15.653Z,99165.63
2022-10-12T21:58:44.260Z,99162.56
2022-10-12T22:01:14.245Z,99162.31
2022-10-12T22:03:43.111Z,99162.94
2022-10-12T22:06:15.231Z,99159.56
2022-10-12T22:08:43.269Z,99155.56
2022-10-12T22:11:14.582Z,99168.13
2022-10-12T22:13:42.705Z,99164.59
2022-10-12T22:16:13.653Z,99160.25
2022-10-12T22:18:42.150Z,99166.84
2022-10-12T22:21:13.264Z,99164.34
2022-10-12T22:23:43.420Z,99165.09
2022-10-12T22:26:13.785Z,99158.53
2022-10-12T22:28:50.131Z,99159.53
2022-10-12T22:31:20.218Z,99168.56
2022-10-12T22:33:48.813Z,99174.50
2022-10-12T22:36:17.184Z,99167.53
2022-10-12T22:38:46.605Z,99168.38
2022-10-12T22:41:17.132Z,99167.41
2022-10-12T22:43:48.226Z,99163.28
2022-10-12T22:46:16.630Z,99164.09
2022-10-12T22:48:44.803Z,99161.41
2022-10-12T22:51:16.441Z,99167.72
2022-10-12T22:53:44.410Z,99165.94
2022-10-12T22:56:16.340Z,99158.00
2022-10-12T22:58:44.477Z,99155.09
2022-10-12T23:01:14.875Z,99157.03
2022-10-12T23:03:43.348Z,99156.72
2022-10-12T23:06:12.900Z,99165.34
2022-10-12T23:08:41.563Z,99161.25
2022-10-12T23:11:12.193Z,99167.84
2022-10-12T23:13:42.105Z,99160.91
2022-10-12T23:16:12.346Z,99162.44
2022-10-12T23:18:40.914Z,99165.78
2022-10-12T23:21:11.105Z,99161.50
2022-10-12T23:23:40.465Z,99155.56
2022-10-12T23:26:10.369Z,99145.19
2022-10-12T23:28:38.664Z,99144.31
2022-10-12T23:31:14.961Z,99140.88
2022-10-12T23:33:43.139Z,99145.50
2022-10-12T23:36:13.811Z,99149.41
2022-10-12T23:38:42.862Z,99145.22
2022-10-12T23:41:11.507Z,99147.69
2022-10-12T23:43:39.551Z,99146.47
2022-10-12T23:46:07.968Z,99143.84
2022-10-12T23:48:37.365Z,99148.22
2022-10-12T23:51:07.841Z,99148.88
2022-10-12T23:53:36.496Z,99155.03
2022-10-12T23:56:04.850Z,99152.97
2022-10-12T23:58:32.865Z,99156.25
